createdAt,value
2023-03-18T00:02:15.633Z,99148.47
2023-03-18T00:04:42.649Z,99179.41
2023-03-18T00:07:10.593Z,99223.44
2023-03-18T00:09:38.847Z,99233.13
2023-03-18T00:12:06.614Z,99230.44
2023-03-18T00:14:36.612Z,99230.41
2023-03-18T00:17:04.318Z,99230.41
2023-03-18T00:19:33.302Z,99231.31
2023-03-18T00:22:00.483Z,99234.03
2023-03-18T00:24:28.364Z,99246.38
2023-03-18T00:26:56.093Z,99249.94
2023-03-18T00:29:25.067Z,99249.75
2023-03-18T00:31:52.480Z,99241.84
2023-03-18T00:34:21.072Z,99243.59
2023-03-18T00:36:51.198Z,99241.88
2023-03-18T00:39:21.708Z,99258.72
2023-03-18T00:41:48.714Z,99261.31
2023-03-18T00:44:15.759Z,99268.38
2023-03-18T00:46:43.561Z,99271.91
2023-03-18T00:49:11.076Z,99281.53
2023-03-18T00:51:39.673Z,99285.00
2023-03-18T00:54:10.578Z,99295.63
2023-03-18T00:56:38.755Z,99309.75
2023-03-18T00:59:08.078Z,99311.44
2023-03-18T01:01:36.743Z,99299.06
2023-03-18T01:04:04.601Z,99287.56
2023-03-18T01:06:35.208Z,99278.75
2023-03-18T01:09:05.160Z,99272.59
2023-03-18T01:11:33.446Z,99271.72
2023-03-18T01:14:01.144Z,99251.38
2023-03-18T01:16:29.850Z,99251.44
2023-03-18T01:18:57.458Z,99245.25
2023-03-18T01:21:25.582Z,99234.66
2023-03-18T01:23:53.439Z,99247.75
2023-03-18T01:26:20.911Z,99204.69
2023-03-18T01:28:48.137Z,99159.16
2023-03-18T01:31:15.761Z,99109.63
2023-03-18T01:33:42.804Z,99100.25
2023-03-18T01:36:10.671Z,99103.81
2023-03-18T01:38:38.543Z,99063.13
2023-03-18T01:41:05.577Z,99034.97
2023-03-18T01:43:38.885Z,99019.03
2023-03-18T01:46:42.882Z,99040.38
2023-03-18T01:49:17.700Z,99092.47
2023-03-18T01:51:55.146Z,99123.50
2023-03-18T01:54:24.898Z,99145.50
2023-03-18T01:56:54.252Z,99151.69
2023-03-18T01:59:26.512Z,99182.69
2023-03-18T02:02:01.383Z,99184.41
2023-03-18T02:04:36.550Z,99212.63
2023-03-18T02:07:05.310Z,99232.84
2023-03-18T02:09:32.312Z,99196.66
2023-03-18T02:12:02.017Z,99188.78
2023-03-18T02:14:29.146Z,99194.13
2023-03-18T02:17:17.767Z,99180.00
2023-03-18T02:19:50.379Z,99168.59
2023-03-18T02:22:32.165Z,99169.50
2023-03-18T02:25:39.799Z,99150.94
2023-03-18T02:28:14.543Z,99142.16
2023-03-18T02:30:47.635Z,99128.03
2023-03-18T02:33:17.450Z,99114.78
2023-03-18T02:35:54.805Z,99093.53
2023-03-18T02:38:21.916Z,99151.94
2023-03-18T02:40:49.452Z,99194.28
2023-03-18T02:43:32.603Z,99228.59
2023-03-18T02:46:48.155Z,99209.16
2023-03-18T02:49:17.128Z,99175.69
2023-03-18T02:51:44.789Z,99165.09
2023-03-18T02:54:16.864Z,99166.00
2023-03-18T02:56:44.904Z,99161.59
2023-03-18T02:59:13.225Z,99158.97
2023-03-18T03:01:43.459Z,99195.13
2023-03-18T03:04:12.570Z,99196.91
2023-03-18T03:06:40.732Z,99175.66
2023-03-18T03:09:11.815Z,99194.28
2023-03-18T03:11:38.792Z,99213.72
2023-03-18T03:14:05.860Z,99233.94
2023-03-18T03:16:33.039Z,99209.25
2023-03-18T03:19:00.109Z,99226.94
2023-03-18T03:21:27.775Z,99233.94
2023-03-18T03:23:54.851Z,99225.13
2023-03-18T03:26:22.242Z,99233.97
2023-03-18T03:28:49.547Z,99231.31
2023-03-18T03:31:17.506Z,99234.84
2023-03-18T03:33:44.887Z,99233.97
2023-03-18T03:36:15.562Z,99266.63
2023-03-18T03:38:43.585Z,99301.91
2023-03-18T03:41:12.576Z,99341.50
2023-03-18T03:43:40.751Z,99344.13
2023-03-18T03:46:09.532Z,99347.63
2023-03-18T03:48:38.370Z,99351.16
2023-03-18T03:51:05.980Z,99360.81
2023-03-18T03:53:34.161Z,99363.44
2023-03-18T03:56:01.593Z,99352.91
2023-03-18T03:58:29.161Z,99352.00
2023-03-18T04:00:56.498Z,99355.53
2023-03-18T04:03:23.865Z,99343.22
2023-03-18T04:05:50.852Z,99351.16
2023-03-18T04:08:17.894Z,99358.19
2023-03-18T04:10:44.961Z,99357.31
2023-03-18T04:13:11.959Z,99362.59
2023-03-18T04:15:39.201Z,99359.06
2023-03-18T04:18:07.274Z,99363.47
2023-03-18T04:20:39.313Z,99365.22
2023-03-18T04:23:07.476Z,99363.47
2023-03-18T04:25:35.379Z,99373.16
2023-03-18T04:28:03.100Z,99364.34
2023-03-18T04:30:30.777Z,99357.31
2023-03-18T04:32:59.790Z,99350.25
2023-03-18T04:35:28.418Z,99343.22
2023-03-18T04:37:55.442Z,99342.38
2023-03-18T04:40:22.526Z,99362.59
2023-03-18T04:42:49.503Z,99384.56
2023-03-18T04:45:17.792Z,99399.53
2023-03-18T04:47:45.929Z,99413.59
2023-03-18T04:50:15.203Z,99414.47
2023-03-18T04:52:45.099Z,99405.66
2023-03-18T04:55:20.667Z,99396.88
2023-03-18T04:57:48.788Z,99399.53
2023-03-18T05:00:23.675Z,99398.66
2023-03-18T05:02:51.041Z,99419.75
2023-03-18T05:05:18.596Z,99413.59
2023-03-18T05:07:45.647Z,99419.75
2023-03-18T05:10:13.600Z,99425.00
2023-03-18T05:12:40.763Z,99446.09
2023-03-18T05:15:10.026Z,99436.41
2023-03-18T05:17:40.171Z,99451.34
2023-03-18T05:20:08.717Z,99448.69
2023-03-18T05:22:35.720Z,99459.22
2023-03-18T05:25:03.007Z,99458.28
2023-03-18T05:27:30.121Z,99459.13
2023-03-18T05:29:57.410Z,99464.38
2023-03-18T05:32:24.772Z,99472.31
2023-03-18T05:34:52.964Z,99474.09
2023-03-18T05:37:19.999Z,99473.16
2023-03-18T05:39:47.016Z,99483.59
2023-03-18T05:42:14.257Z,99488.03
2023-03-18T05:44:42.228Z,99492.44
2023-03-18T05:47:09.976Z,99492.44
2023-03-18T05:49:37.378Z,99495.94
2023-03-18T05:52:05.155Z,99512.66
2023-03-18T05:54:32.155Z,99521.44
2023-03-18T05:56:59.638Z,99553.81
2023-03-18T05:59:26.747Z,99562.63
2023-03-18T06:01:54.575Z,99575.75
2023-03-18T06:04:22.024Z,99580.19
2023-03-18T06:07:40.190Z,99597.75
2023-03-18T06:10:08.865Z,99602.97
2023-03-18T06:12:36.003Z,99610.91
2023-03-18T06:15:03.960Z,99617.94
2023-03-18T06:17:32.470Z,99620.56
2023-03-18T06:19:59.635Z,99632.97
2023-03-18T06:22:26.759Z,99618.88
2023-03-18T06:24:54.368Z,99606.56
2023-03-18T06:27:21.415Z,99610.91
2023-03-18T06:29:48.918Z,99603.88
2023-03-18T06:32:16.108Z,99606.53
2023-03-18T06:34:43.068Z,99591.66
2023-03-18T06:37:10.859Z,99582.94
2023-03-18T06:39:39.106Z,99570.66
2023-03-18T06:42:07.811Z,99554.84
2023-03-18T06:44:35.424Z,99550.44
2023-03-18T06:47:02.948Z,99558.38
2023-03-18T06:49:30.975Z,99550.44
2023-03-18T06:51:57.926Z,99553.09
2023-03-18T06:54:25.536Z,99556.56
2023-03-18T06:56:52.993Z,99555.72
2023-03-18T06:59:21.583Z,99558.34
2023-03-18T07:01:49.529Z,99569.88
2023-03-18T07:04:16.612Z,99564.63
2023-03-18T07:06:43.645Z,99559.34
2023-03-18T07:09:12.671Z,99557.56
2023-03-18T07:11:39.667Z,99566.41
2023-03-18T07:14:06.822Z,99568.19
2023-03-18T07:16:34.004Z,99587.56
2023-03-18T07:19:02.055Z,99590.22
2023-03-18T07:21:29.450Z,99605.19
2023-03-18T07:23:56.816Z,99609.59
2023-03-18T07:26:24.223Z,99615.81
2023-03-18T07:28:51.939Z,99617.50
2023-03-18T07:31:19.161Z,99612.28
2023-03-18T07:33:46.927Z,99614.94
2023-03-18T07:36:14.270Z,99609.66
2023-03-18T07:38:41.476Z,99612.31
2023-03-18T07:41:08.512Z,99629.91
2023-03-18T07:43:37.097Z,99604.38
2023-03-18T07:46:04.656Z,99590.28
2023-03-18T07:48:34.177Z,99596.44
2023-03-18T07:51:02.301Z,99572.63
2023-03-18T07:53:29.552Z,99563.84
2023-03-18T07:55:57.187Z,99563.88
2023-03-18T07:58:24.691Z,99576.19
2023-03-18T08:00:53.280Z,99540.00
2023-03-18T08:03:20.274Z,99504.72
2023-03-18T08:05:47.293Z,99495.84
2023-03-18T08:08:14.232Z,99479.75
2023-03-18T08:10:41.195Z,99401.91
2023-03-18T08:13:08.346Z,99392.88
2023-03-18T08:15:35.537Z,99372.38
2023-03-18T08:18:02.788Z,99392.25
2023-03-18T08:20:29.776Z,99309.50
2023-03-18T08:22:57.211Z,99213.88
2023-03-18T08:25:24.856Z,99206.34
2023-03-18T08:27:52.591Z,99196.72
2023-03-18T08:30:19.869Z,99191.59
2023-03-18T08:32:47.153Z,99185.84
2023-03-18T08:35:14.564Z,99136.97
2023-03-18T08:37:41.507Z,99049.47
2023-03-18T08:40:09.971Z,99058.63
2023-03-18T08:42:36.987Z,99003.97
2023-03-18T08:45:04.930Z,99058.41
2023-03-18T08:47:32.526Z,98998.97
2023-03-18T08:49:59.517Z,99020.34
2023-03-18T08:52:26.512Z,98960.06
2023-03-18T08:54:53.452Z,98942.75
2023-03-18T08:57:20.855Z,98960.97
2023-03-18T08:59:48.203Z,98896.13
2023-03-18T09:02:18.513Z,98897.91
2023-03-18T09:04:46.049Z,98828.28
2023-03-18T09:07:13.634Z,98819.25
2023-03-18T09:09:44.057Z,98807.16
2023-03-18T09:12:12.818Z,98711.81
2023-03-18T09:14:40.848Z,98738.91
2023-03-18T09:17:10.337Z,98714.44
2023-03-18T09:19:37.557Z,98663.59
2023-03-18T09:22:04.775Z,98721.03
2023-03-18T09:24:32.006Z,98692.25
2023-03-18T09:27:00.056Z,98711.19
2023-03-18T09:29:27.827Z,98592.81
2023-03-18T09:31:55.808Z,98655.00
2023-03-18T09:34:22.912Z,98558.13
2023-03-18T09:36:51.701Z,98475.19
2023-03-18T09:39:22.351Z,98540.03
2023-03-18T09:42:13.303Z,98549.75
2023-03-18T09:44:41.024Z,98509.09
2023-03-18T09:47:33.003Z,98537.41
2023-03-18T09:50:29.288Z,98525.00
2023-03-18T09:53:03.763Z,98445.31
2023-03-18T09:55:49.888Z,98428.44
2023-03-18T09:58:50.416Z,98446.63
2023-03-18T10:01:18.798Z,98397.63
2023-03-18T10:04:16.175Z,98423.47
2023-03-18T10:06:45.942Z,98355.00
2023-03-18T10:09:27.109Z,98388.19
2023-03-18T10:12:33.018Z,98357.69
2023-03-18T10:15:13.383Z,98422.47
2023-03-18T10:17:47.156Z,98254.22
2023-03-18T10:20:29.715Z,98292.34
2023-03-18T10:23:36.387Z,98321.34
2023-03-18T10:26:17.558Z,98214.09
2023-03-18T10:28:49.443Z,98308.72
2023-03-18T10:32:03.827Z,98269.97
2023-03-18T10:34:51.290Z,98351.44
2023-03-18T10:38:13.250Z,98173.25
2023-03-18T10:40:42.802Z,98074.19
2023-03-18T10:43:22.266Z,98092.22
2023-03-18T10:46:00.066Z,98170.75
2023-03-18T10:48:40.035Z,98096.19
2023-03-18T10:51:53.454Z,98165.53
2023-03-18T10:54:35.557Z,98153.88
2023-03-18T10:57:02.957Z,98069.88
2023-03-18T10:59:30.633Z,98007.78
2023-03-18T11:02:05.782Z,98071.34
2023-03-18T11:05:00.786Z,98080.72
2023-03-18T11:07:28.817Z,98125.09
2023-03-18T11:10:10.303Z,98162.88
2023-03-18T11:12:37.670Z,97983.38
2023-03-18T11:15:11.972Z,97888.34
2023-03-18T11:17:40.799Z,97809.25
2023-03-18T11:20:17.049Z,97838.34
2023-03-18T11:22:55.667Z,97819.69
2023-03-18T11:25:30.196Z,97869.72
2023-03-18T11:28:06.386Z,98026.19
2023-03-18T11:30:48.804Z,98000.31
2023-03-18T11:33:17.909Z,97821.78
2023-03-18T11:35:56.201Z,97655.25
2023-03-18T11:38:33.113Z,97688.03
2023-03-18T11:41:17.044Z,97683.19
2023-03-18T11:44:08.575Z,97677.78
2023-03-18T11:46:59.894Z,97697.19
2023-03-18T11:49:28.817Z,97662.25
2023-03-18T11:52:21.736Z,97707.47
2023-03-18T11:55:22.736Z,97715.78
2023-03-18T11:58:15.879Z,97682.28
2023-03-18T12:01:17.573Z,97765.81
2023-03-18T12:04:27.845Z,97526.47
2023-03-18T12:07:58.123Z,97461.84
2023-03-18T12:10:29.994Z,97602.25
2023-03-18T12:13:29.858Z,97556.78
2023-03-18T12:16:06.103Z,97525.00
2023-03-18T12:19:05.292Z,97454.94
2023-03-18T12:22:16.656Z,97482.78
2023-03-18T12:25:30.780Z,97350.56
2023-03-18T12:28:16.935Z,97397.75
2023-03-18T12:31:00.036Z,97418.38
2023-03-18T12:33:28.511Z,97391.75
2023-03-18T12:36:10.350Z,97391.75
2023-03-18T12:39:12.575Z,97463.22
2023-03-18T12:42:08.273Z,97551.19
2023-03-18T12:45:03.170Z,97499.56
2023-03-18T12:47:37.373Z,97305.06
2023-03-18T12:50:20.736Z,97349.59
2023-03-18T12:53:17.078Z,97401.91
2023-03-18T12:55:57.643Z,97439.34
2023-03-18T12:59:03.840Z,97404.59
2023-03-18T13:02:01.404Z,97331.56
2023-03-18T13:04:33.641Z,97299.38
2023-03-18T13:07:18.697Z,97253.59
2023-03-18T13:10:02.568Z,97213.22
2023-03-18T13:12:56.488Z,97227.19
2023-03-18T13:15:34.147Z,97357.91
2023-03-18T13:18:16.424Z,97347.72
2023-03-18T13:20:45.066Z,97331.84
2023-03-18T13:23:32.655Z,97261.22
2023-03-18T13:26:43.510Z,97224.25
2023-03-18T13:29:27.185Z,97289.69
2023-03-18T13:32:24.979Z,97348.75
2023-03-18T13:35:39.250Z,97269.72
2023-03-18T13:38:11.856Z,97075.09
2023-03-18T13:41:32.350Z,97126.50
2023-03-18T13:44:15.735Z,97184.06
2023-03-18T13:47:04.198Z,97091.06
2023-03-18T13:49:34.818Z,97146.66
2023-03-18T13:52:04.532Z,97012.16
2023-03-18T13:54:41.367Z,96983.50
2023-03-18T13:57:26.924Z,96901.00
2023-03-18T14:00:31.283Z,96898.47
2023-03-18T14:03:22.039Z,96941.75
2023-03-18T14:06:08.601Z,96863.31
2023-03-18T14:08:39.001Z,96919.34
2023-03-18T14:11:19.825Z,96964.00
2023-03-18T14:14:00.796Z,96923.06
2023-03-18T14:16:53.022Z,96849.41
2023-03-18T14:19:28.769Z,96860.38
2023-03-18T14:22:08.431Z,96840.47
2023-03-18T14:24:36.066Z,96940.84
2023-03-18T14:27:06.693Z,96726.63
2023-03-18T14:29:48.071Z,96728.69
2023-03-18T14:32:33.297Z,96708.44
2023-03-18T14:35:13.564Z,96768.69
2023-03-18T14:38:15.618Z,96688.16
2023-03-18T14:40:47.320Z,96665.72
2023-03-18T14:43:25.769Z,96789.91
2023-03-18T14:45:57.537Z,96816.66
2023-03-18T14:48:30.505Z,96838.69
2023-03-18T14:51:20.555Z,96829.56
2023-03-18T14:53:53.919Z,96690.13
2023-03-18T14:56:29.643Z,96708.94
2023-03-18T14:58:57.131Z,96758.69
2023-03-18T15:01:39.185Z,96696.66
2023-03-18T15:04:15.826Z,96633.56
2023-03-18T15:06:43.203Z,96590.00
2023-03-18T15:09:19.381Z,96586.00
2023-03-18T15:11:47.880Z,96500.97
2023-03-18T15:14:27.345Z,96502.59
2023-03-18T15:16:57.283Z,96531.03
2023-03-18T15:19:24.918Z,96648.47
2023-03-18T15:21:52.337Z,96625.91
2023-03-18T15:24:24.788Z,96687.66
2023-03-18T15:27:05.988Z,96739.38
2023-03-18T15:29:49.064Z,96808.78
2023-03-18T15:32:24.178Z,96851.56
2023-03-18T15:35:12.137Z,96892.31
2023-03-18T15:37:44.844Z,96909.38
2023-03-18T15:40:24.722Z,96979.56
2023-03-18T15:43:04.816Z,96957.88
2023-03-18T15:45:34.223Z,96966.00
2023-03-18T15:48:27.534Z,96859.72
2023-03-18T15:51:01.020Z,96868.47
2023-03-18T15:53:40.002Z,96793.72
2023-03-18T15:56:32.184Z,96766.34
2023-03-18T15:59:16.305Z,96750.41
2023-03-18T16:01:44.081Z,96747.25
2023-03-18T16:04:17.175Z,96703.50
2023-03-18T16:06:44.883Z,96763.72
2023-03-18T16:09:23.451Z,96742.59
2023-03-18T16:11:55.829Z,96732.63
2023-03-18T16:14:37.063Z,96766.44
2023-03-18T16:17:04.442Z,96846.34
2023-03-18T16:19:32.518Z,96933.75
2023-03-18T16:22:00.478Z,96948.03
2023-03-18T16:24:28.157Z,96957.72
2023-03-18T16:26:56.957Z,96949.84
2023-03-18T16:29:38.213Z,96974.88
2023-03-18T16:32:06.433Z,96964.22
2023-03-18T16:34:34.957Z,96913.47
2023-03-18T16:37:06.217Z,96953.09
2023-03-18T16:39:36.246Z,96976.81
2023-03-18T16:42:06.699Z,96964.28
2023-03-18T16:44:35.856Z,96973.31
2023-03-18T16:47:03.410Z,96999.31
2023-03-18T16:49:33.501Z,97000.13
2023-03-18T16:52:03.827Z,97009.81
2023-03-18T16:54:34.050Z,96945.50
2023-03-18T16:57:04.493Z,96898.06
2023-03-18T16:59:37.687Z,96906.41
2023-03-18T17:02:05.871Z,96946.56
2023-03-18T17:04:35.659Z,96960.16
2023-03-18T17:07:05.501Z,96982.25
2023-03-18T17:09:32.957Z,97002.78
2023-03-18T17:12:07.798Z,97014.06
2023-03-18T17:14:44.125Z,97024.75
2023-03-18T17:17:35.874Z,97048.22
2023-03-18T17:20:05.602Z,97073.25
2023-03-18T17:22:35.166Z,97066.72
2023-03-18T17:25:05.081Z,97091.44
2023-03-18T17:27:45.914Z,97106.97
2023-03-18T17:30:34.312Z,97127.31
2023-03-18T17:33:02.803Z,97113.88
2023-03-18T17:35:30.472Z,97144.13
2023-03-18T17:37:58.173Z,97167.66
2023-03-18T17:40:30.394Z,97175.25
2023-03-18T17:42:57.868Z,97190.00
2023-03-18T17:45:34.018Z,97183.88
2023-03-18T17:48:21.992Z,97195.56
2023-03-18T17:51:00.029Z,97191.66
2023-03-18T17:53:46.061Z,97204.13
2023-03-18T17:56:16.311Z,97223.97
2023-03-18T17:58:48.631Z,97247.63
2023-03-18T18:01:19.622Z,97253.91
2023-03-18T18:03:47.844Z,97273.56
2023-03-18T18:06:22.113Z,97267.34
2023-03-18T18:08:50.078Z,97293.03
2023-03-18T18:11:19.390Z,97304.81
2023-03-18T18:13:47.541Z,97338.09
2023-03-18T18:17:17.228Z,97388.63
2023-03-18T18:19:44.971Z,97413.44
2023-03-18T18:22:20.836Z,97483.31
2023-03-18T18:24:48.964Z,97556.41
2023-03-18T18:27:16.467Z,97617.59
2023-03-18T18:29:49.207Z,97654.00
2023-03-18T18:32:17.126Z,97678.84
2023-03-18T18:34:45.185Z,97744.06
2023-03-18T18:37:12.850Z,97787.22
2023-03-18T18:39:41.532Z,97814.47
2023-03-18T18:42:08.895Z,97841.97
2023-03-18T18:44:36.700Z,97891.22
2023-03-18T18:47:06.638Z,97893.13
2023-03-18T18:49:34.393Z,97926.31
2023-03-18T18:52:02.318Z,97957.06
2023-03-18T18:54:29.402Z,97966.25
2023-03-18T18:56:57.561Z,98024.06
2023-03-18T18:59:31.967Z,98059.31
2023-03-18T19:02:00.806Z,98102.09
2023-03-18T19:04:27.818Z,98150.53
2023-03-18T19:06:55.819Z,98179.63
2023-03-18T19:09:26.137Z,98151.50
2023-03-18T19:11:56.222Z,98173.63
2023-03-18T19:14:26.559Z,98208.63
2023-03-18T19:16:58.501Z,98218.63
2023-03-18T19:19:29.281Z,98256.25
2023-03-18T19:21:57.596Z,98262.09
2023-03-18T19:24:27.637Z,98281.94
2023-03-18T19:26:58.592Z,98292.53
2023-03-18T19:29:26.664Z,98302.53
2023-03-18T19:31:54.592Z,98325.00
2023-03-18T19:34:22.230Z,98346.22
2023-03-18T19:36:53.207Z,98372.22
2023-03-18T19:39:22.541Z,98376.44
2023-03-18T19:41:49.888Z,98363.38
2023-03-18T19:44:24.295Z,98377.28
2023-03-18T19:46:54.726Z,98382.91
2023-03-18T19:49:36.725Z,98411.44
2023-03-18T19:52:34.545Z,98436.31
2023-03-18T19:55:08.338Z,98456.03
2023-03-18T19:57:35.440Z,98482.03
2023-03-18T20:00:08.917Z,98498.22
2023-03-18T20:02:35.972Z,98511.59
2023-03-18T20:05:16.551Z,98528.75
2023-03-18T20:07:43.680Z,98557.66
2023-03-18T20:10:12.338Z,98578.50
2023-03-18T20:12:42.497Z,98592.41
2023-03-18T20:15:22.896Z,98575.81
2023-03-18T20:17:51.884Z,98600.16
2023-03-18T20:20:25.471Z,98631.94
2023-03-18T20:23:18.596Z,98656.19
2023-03-18T20:25:47.325Z,98683.81
2023-03-18T20:28:21.742Z,98722.25
2023-03-18T20:30:52.596Z,98716.69
2023-03-18T20:33:21.061Z,98732.16
2023-03-18T20:35:51.173Z,98745.53
2023-03-18T20:38:41.048Z,98766.72
2023-03-18T20:41:08.363Z,98787.94
2023-03-18T20:43:35.435Z,98809.69
2023-03-18T20:46:02.786Z,98821.81
2023-03-18T20:48:30.439Z,98842.00
2023-03-18T20:50:58.394Z,98836.16
2023-03-18T20:53:28.654Z,98858.84
2023-03-18T20:55:56.451Z,98862.97
2023-03-18T20:58:26.520Z,98898.94
2023-03-18T21:00:54.690Z,98928.88
2023-03-18T21:03:31.391Z,98946.22
2023-03-18T21:06:01.662Z,98948.91
2023-03-18T21:08:30.063Z,98955.78
2023-03-18T21:11:01.674Z,98981.31
2023-03-18T21:13:34.432Z,98976.88
2023-03-18T21:16:02.493Z,98971.69
2023-03-18T21:18:30.612Z,98992.28
2023-03-18T21:20:58.196Z,99006.38
2023-03-18T21:23:26.684Z,99026.00
2023-03-18T21:25:54.492Z,99033.19
2023-03-18T21:28:25.538Z,99049.78
2023-03-18T21:30:56.197Z,99065.31
2023-03-18T21:33:31.256Z,99061.75
2023-03-18T21:35:58.960Z,99057.13
2023-03-18T21:38:28.805Z,99029.97
2023-03-18T21:40:57.012Z,99032.72
2023-03-18T21:43:35.389Z,99033.66
2023-03-18T21:46:05.926Z,99028.41
2023-03-18T21:48:32.984Z,99038.19
2023-03-18T21:51:00.031Z,99064.97
2023-03-18T21:53:28.721Z,99091.56
2023-03-18T21:55:56.259Z,99096.81
2023-03-18T21:58:26.552Z,99119.84
2023-03-18T22:00:59.070Z,99166.34
2023-03-18T22:03:29.808Z,99186.56
2023-03-18T22:05:57.641Z,99195.44
2023-03-18T22:08:25.462Z,99201.66
2023-03-18T22:10:53.025Z,99216.53
2023-03-18T22:13:23.838Z,99238.47
2023-03-18T22:15:53.169Z,99240.25
2023-03-18T22:18:21.309Z,99255.97
2023-03-18T22:20:51.256Z,99263.06
2023-03-18T22:23:25.578Z,99262.31
2023-03-18T22:25:55.700Z,99276.34
2023-03-18T22:28:24.453Z,99295.63
2023-03-18T22:30:55.063Z,99307.03
2023-03-18T22:33:27.705Z,99307.94
2023-03-18T22:35:55.753Z,99313.28
2023-03-18T22:38:24.369Z,99325.59
2023-03-18T22:40:56.794Z,99346.72
2023-03-18T22:43:35.330Z,99357.22
2023-03-18T22:46:09.279Z,99363.34
2023-03-18T22:48:36.397Z,99368.66
2023-03-18T22:51:04.849Z,99359.88
2023-03-18T22:53:41.280Z,99366.00
2023-03-18T22:56:14.519Z,99374.81
2023-03-18T22:58:41.582Z,99394.19
2023-03-18T23:01:14.829Z,99410.91
2023-03-18T23:03:43.995Z,99435.56
2023-03-18T23:06:17.332Z,99449.63
2023-03-18T23:08:45.754Z,99461.91
2023-03-18T23:11:13.732Z,99478.66
2023-03-18T23:13:47.718Z,99483.00
2023-03-18T23:16:21.148Z,99498.88
2023-03-18T23:18:48.901Z,99500.63
2023-03-18T23:21:25.747Z,99508.53
2023-03-18T23:23:53.673Z,99506.78
2023-03-18T23:26:21.705Z,99508.53
2023-03-18T23:28:49.358Z,99524.38
2023-03-18T23:31:17.456Z,99515.56
2023-03-18T23:33:45.632Z,99525.25
2023-03-18T23:36:12.848Z,99514.69
2023-03-18T23:38:40.522Z,99512.94
2023-03-18T23:41:08.262Z,99519.97
2023-03-18T23:43:35.671Z,99533.16
2023-03-18T23:46:03.805Z,99529.63
2023-03-18T23:48:31.473Z,99521.69
2023-03-18T23:50:58.683Z,99534.88
2023-03-18T23:53:25.684Z,99552.47
2023-03-18T23:55:52.629Z,99563.00
2023-03-18T23:58:19.706Z,99582.34
